| time (UTC) | temp F | wind direction | speed MPH | gust MPH | rain 1hr in | rain 24hr in | rain mn in | humidity % | barometer mb |
| 20260904103052 | 0 | 0.0 | 0.0 | 0.00 | 0.00 | 0.00 | 1015.0 | ||
| 20260904101550 | 0 | 0.0 | 0.0 | 0.00 | 0.00 | 0.00 | 1015.0 | ||
| 20260904100051 | 0 | 0.0 | 0.0 | 0.00 | 0.00 | 0.00 | 1014.9 | ||
| 20260904094553 | 0 | 0.0 | 0.0 | 0.00 | 0.00 | 0.00 | 1014.9 | ||
| 20260904093106 | 0 | 0.0 | 0.0 | 0.00 | 0.00 | 0.00 | 1014.9 | ||
| 20260904091559 | 0 | 0.0 | 0.0 | 0.00 | 0.00 | 0.00 | 1014.8 | ||
| 20260904090053 | 0 | 147 | 0.0 | 1.0 | 0.00 | 0.00 | 0.00 | 87 | 1014.8 |
| 20260904084552 | 80 | 264 | 0.0 | 6.0 | 0.00 | 0.00 | 0.00 | 86 | 1014.9 |
| 20260904083102 | 80 | 0 | 0.0 | 5.0 | 0.00 | 0.00 | 0.00 | 86 | 1015.0 |
| 20260904081555 | 80 | 106 | 0.0 | 2.0 | 0.00 | 0.00 | 0.00 | 86 | 1015.0 |
| 20260904080052 | 80 | 78 | 0.0 | 2.0 | 0.00 | 0.00 | 0.00 | 86 | 1015.0 |
| 20260904074601 | 80 | 145 | 0.0 | 2.0 | 0.00 | 0.00 | 0.00 | 86 | 1015.2 |
| 20260904073047 | 80 | 0 | 0.0 | 2.0 | 0.00 | 0.00 | 0.00 | 85 | 1015.3 |
| 20260904071611 | 81 | 224 | 0.0 | 3.0 | 0.00 | 0.00 | 0.00 | 85 | 1015.4 |
| 20260904070106 | 81 | 0 | 0.0 | 6.0 | 0.00 | 0.00 | 0.00 | 84 | 1015.5 |
| 20260904064605 | 81 | 110 | 0.0 | 5.0 | 0.00 | 0.00 | 0.00 | 83 | 1015.4 |
| 20260904063054 | 81 | 48 | 0.0 | 4.0 | 0.00 | 0.00 | 0.00 | 83 | 1015.5 |
| 20260904061553 | 81 | 89 | 0.0 | 8.0 | 0.00 | 0.00 | 0.00 | 83 | 1015.6 |
| 20260904060054 | 81 | 0 | 1.0 | 6.0 | 0.00 | 0.00 | 0.00 | 82 | 1015.5 |
| 20260904054551 | 82 | 136 | 0.0 | 3.0 | 0.00 | 0.00 | 0.00 | 81 | 1015.7 |
| 20260904053059 | 82 | 122 | 0.0 | 8.0 | 0.00 | 0.00 | 0.00 | 81 | 1015.6 |
| 20260904051545 | 82 | 0 | 0.0 | 10.0 | 0.00 | 0.00 | 0.00 | 80 | 1015.7 |
| 20260904050056 | 82 | 116 | 2.0 | 7.0 | 0.00 | 0.00 | 0.00 | 80 | 1015.5 |
| 20260904044601 | 82 | 0 | 0.0 | 9.0 | 0.00 | 0.00 | 0.00 | 79 | 1015.3 |
| 20260904043052 | 83 | 101 | 2.0 | 14.0 | 0.00 | 0.00 | 0.00 | 78 | 1015.1 |
| 20260904041548 | 83 | 65 | 4.0 | 13.0 | 0.00 | 0.00 | 0.00 | 75 | 1015.2 |
| 20260904040057 | 84 | 215 | 4.0 | 14.0 | 0.00 | 0.00 | 0.00 | 72 | 1015.1 |
| 20260904034551 | 85 | 0 | 3.0 | 11.0 | 0.00 | 0.00 | 0.00 | 70 | 1015.1 |
| 20260904033056 | 86 | 87 | 4.0 | 11.0 | 0.00 | 0.00 | 0.00 | 65 | 1014.9 |
| 20260904031601 | 86 | 179 | 3.0 | 10.0 | 0.00 | 0.00 | 0.00 | 64 | 1014.7 |
| 20260904030054 | 87 | 122 | 4.0 | 13.0 | 0.00 | 0.00 | 0.00 | 63 | 1014.3 |
| 20260904024553 | 87 | 88 | 5.0 | 13.0 | 0.00 | 0.00 | 0.00 | 61 | 1014.0 |
| 20260904023053 | 88 | 93 | 2.0 | 7.0 | 0.00 | 0.00 | 0.00 | 61 | 1013.7 |
| 20260904021551 | 88 | 66 | 5.0 | 13.0 | 0.00 | 0.00 | 0.00 | 60 | 1013.5 |
| 20260904020056 | 88 | 101 | 3.0 | 11.0 | 0.00 | 0.00 | 0.00 | 60 | 1013.3 |
| 20260904014553 | 88 | 0 | 4.0 | 13.0 | 0.00 | 0.00 | 0.00 | 60 | 1013.0 |
| 20260904013050 | 88 | 79 | 4.0 | 13.0 | 0.00 | 0.00 | 0.00 | 61 | 1012.9 |
| 20260904011553 | 88 | 84 | 3.0 | 11.0 | 0.00 | 0.00 | 0.00 | 61 | 1012.8 |
| 20260904010050 | 90 | 118 | 9.0 | 15.0 | 0.00 | 0.00 | 0.00 | 58 | 1012.7 |
| 20260904004553 | 92 | 58 | 6.0 | 15.0 | 0.00 | 0.00 | 0.00 | 54 | 1012.3 |
| 20260904003051 | 94 | 40 | 5.0 | 14.0 | 0.00 | 0.00 | 0.00 | 50 | 1011.8 |
| 20260904001550 | 96 | 26 | 3.0 | 8.0 | 0.00 | 0.00 | 0.00 | 47 | 1011.7 |
| 20260904000047 | 98 | 63 | 1.0 | 7.0 | 0.00 | 0.00 | 0.00 | 43 | 1011.4 |
| 20260903234556 | 98 | 116 | 2.0 | 9.0 | 0.00 | 0.00 | 0.00 | 42 | 1011.4 |
| 20260903233053 | 99 | 115 | 2.0 | 7.0 | 0.00 | 0.00 | 0.00 | 42 | 1011.3 |
| 20260903231556 | 99 | 62 | 3.0 | 7.0 | 0.00 | 0.00 | 0.00 | 41 | 1011.3 |
| 20260903230051 | 99 | 141 | 3.0 | 6.0 | 0.00 | 0.00 | 0.00 | 41 | 1011.2 |
| 20260903224549 | 100 | 113 | 3.0 | 8.0 | 0.00 | 0.00 | 0.00 | 40 | 1011.1 |
| 20260903223057 | 100 | 136 | 2.0 | 6.0 | 0.00 | 0.00 | 0.00 | 41 | 1011.3 |
| 20260903221555 | 100 | 139 | 1.0 | 7.0 | 0.00 | 0.00 | 0.00 | 42 | 1011.4 |
| 20260903220104 | 99 | 0 | 2.0 | 7.0 | 0.00 | 0.00 | 0.00 | 45 | 1011.4 |
| 20260903214555 | 100 | 109 | 1.0 | 6.0 | 0.00 | 0.00 | 0.00 | 43 | 1011.5 |
| 20260903213055 | 99 | 84 | 3.0 | 7.0 | 0.00 | 0.00 | 0.00 | 43 | 1011.7 |
| 20260903211553 | 99 | 0 | 1.0 | 4.0 | 0.00 | 0.00 | 0.00 | 42 | 1011.8 |
| 20260903210054 | 100 | 0 | 0.0 | 6.0 | 0.00 | 0.00 | 0.00 | 44 | 1012.2 |
| 20260903204557 | 98 | 0 | 2.0 | 7.0 | 0.00 | 0.00 | 0.00 | 45 | 1012.5 |
| 20260903203055 | 98 | 123 | 4.0 | 6.0 | 0.00 | 0.00 | 0.00 | 46 | 1012.7 |
| 20260903201553 | 98 | 0 | 2.0 | 6.0 | 0.00 | 0.00 | 0.00 | 46 | 1012.8 |
| 20260903200052 | 98 | 267 | 1.0 | 8.0 | 0.00 | 0.00 | 0.00 | 46 | 1013.0 |
| 20260903194559 | 98 | 181 | 3.0 | 8.0 | 0.00 | 0.00 | 0.00 | 45 | 1013.2 |
| 20260903193058 | 97 | 255 | 1.0 | 4.0 | 0.00 | 0.00 | 0.00 | 49 | 1013.4 |
| 20260903191552 | 96 | 123 | 1.0 | 4.0 | 0.00 | 0.00 | 0.00 | 50 | 1013.8 |
| 20260903190053 | 95 | 154 | 1.0 | 8.0 | 0.00 | 0.00 | 0.00 | 50 | 1014.0 |
| 20260903184559 | 94 | 266 | 2.0 | 7.0 | 0.00 | 0.00 | 0.00 | 53 | 1014.4 |
| 20260903183055 | 94 | 131 | 1.0 | 8.0 | 0.00 | 0.00 | 0.00 | 55 | 1014.6 |
| 20260903181552 | 95 | 129 | 0.0 | 7.0 | 0.00 | 0.00 | 0.00 | 56 | 1014.8 |
| 20260903180116 | 93 | 0 | 1.0 | 6.0 | 0.00 | 0.00 | 0.00 | 58 | 1014.9 |
| 20260903174557 | 92 | 0 | 3.0 | 8.0 | 0.00 | 0.00 | 0.00 | 61 | 1015.3 |
| 20260903173055 | 92 | 0 | 0.0 | 7.0 | 0.00 | 0.00 | 0.00 | 64 | 1015.5 |
| 20260903171555 | 91 | 133 | 2.0 | 7.0 | 0.00 | 0.00 | 0.00 | 65 | 1015.7 |
| 20260903164609 | 89 | 31 | 2.0 | 5.0 | 0.00 | 0.00 | 0.00 | 69 | 1016.0 |
| 20260903163054 | 89 | 139 | 1.0 | 6.0 | 0.00 | 0.00 | 0.00 | 70 | 1016.1 |
| 20260903161551 | 87 | 0 | 0.0 | 6.0 | 0.00 | 0.00 | 0.00 | 73 | 1016.1 |
| 20260903160108 | 87 | 225 | 1.0 | 7.0 | 0.00 | 0.00 | 0.00 | 74 | 1016.2 |
| 20260903154552 | 87 | 0 | 0.0 | 6.0 | 0.00 | 0.00 | 0.00 | 76 | 1016.1 |
| 20260903153052 | 86 | 206 | 0.0 | 6.0 | 0.00 | 0.00 | 0.00 | 76 | 1016.0 |
| 20260903151553 | 85 | 196 | 0.0 | 9.0 | 0.00 | 0.00 | 0.00 | 78 | 1016.1 |
| 20260903150101 | 85 | 0 | 0.0 | 5.0 | 0.00 | 0.00 | 0.00 | 79 | 1016.2 |
| 20260903144556 | 83 | 0 | 0.0 | 2.0 | 0.00 | 0.00 | 0.00 | 82 | 1016.2 |
| 20260903143049 | 0 | 0.0 | 0.0 | 0.00 | 0.00 | 0.00 | 1016.1 | ||
| 20260903141549 | 0 | 0.0 | 0.0 | 0.00 | 0.00 | 0.00 | 1016.3 | ||
| 20260903140055 | 0 | 0.0 | 0.0 | 0.00 | 0.00 | 0.00 | 1016.2 | ||
| 20260903134553 | 0 | 0.0 | 0.0 | 0.00 | 0.00 | 0.00 | 1016.4 | ||
| 20260903133053 | 0 | 0.0 | 0.0 | 0.00 | 0.00 | 0.00 | 1016.3 | ||
| 20260903131551 | 0 | 0.0 | 0.0 | 0.00 | 0.00 | 0.00 | 1016.4 | ||
| 20260903130116 | 0 | 0.0 | 0.0 | 0.00 | 0.00 | 0.00 | 1016.4 | ||
| 20260903124554 | 0 | 0.0 | 0.0 | 0.00 | 0.00 | 0.00 | 1016.2 | ||
| 20260903123050 | 0 | 0.0 | 0.0 | 0.00 | 0.00 | 0.00 | 1016.2 | ||
| 20260903121548 | 0 | 0.0 | 0.0 | 0.00 | 0.00 | 0.00 | 1016.1 | ||
| 20260903120059 | 0 | 0.0 | 0.0 | 0.00 | 0.00 | 0.00 | 1015.7 | ||
| 20260903114553 | 0 | 0.0 | 0.0 | 0.00 | 0.00 | 0.00 | 1015.7 | ||
| 20260903113051 | 0 | 0.0 | 0.0 | 0.00 | 0.00 | 0.00 | 1015.7 | ||
| 20260903111559 | 0 | 0.0 | 0.0 | 0.00 | 0.00 | 0.00 | 1015.7 | ||
| 20260903110120 | 0 | 0.0 | 0.0 | 0.00 | 0.00 | 0.00 | 1015.6 | ||
| 20260903104555 | 0 | 0.0 | 0.0 | 0.00 | 0.00 | 0.00 | 1015.6 |